createdAt,value
2023-02-23T00:02:09.401Z,99.90
2023-02-23T00:04:38.339Z,99.90
2023-02-23T00:07:07.232Z,99.90
2023-02-23T00:09:36.195Z,99.90
2023-02-23T00:12:08.873Z,99.90
2023-02-23T00:14:39.289Z,99.90
2023-02-23T00:17:14.054Z,99.90
2023-02-23T00:19:43.430Z,99.90
2023-02-23T00:22:11.953Z,99.90
2023-02-23T00:24:42.263Z,99.90
2023-02-23T00:27:17.705Z,99.90
2023-02-23T00:29:49.255Z,99.90
2023-02-23T00:32:19.886Z,99.90
2023-02-23T00:34:49.634Z,99.90
2023-02-23T00:37:19.273Z,99.90
2023-02-23T00:39:47.431Z,99.90
2023-02-23T00:42:16.966Z,99.90
2023-02-23T00:44:47.477Z,99.90
2023-02-23T00:47:15.600Z,99.90
2023-02-23T00:49:45.009Z,99.90
2023-02-23T00:52:14.966Z,99.90
2023-02-23T00:54:43.283Z,99.90
2023-02-23T00:57:11.321Z,99.90
2023-02-23T00:59:40.860Z,99.90
2023-02-23T01:02:09.100Z,99.90
2023-02-23T01:04:37.116Z,99.90
2023-02-23T01:07:06.657Z,99.90
2023-02-23T01:09:35.247Z,99.90
2023-02-23T01:12:07.375Z,99.90
2023-02-23T01:14:35.825Z,99.90
2023-02-23T01:17:05.337Z,99.90
2023-02-23T01:19:34.154Z,99.90
2023-02-23T01:22:02.621Z,99.90
2023-02-23T01:24:30.905Z,99.90
2023-02-23T01:26:58.856Z,99.90
2023-02-23T01:29:26.906Z,99.90
2023-02-23T01:31:55.118Z,99.90
2023-02-23T01:34:24.535Z,99.90
2023-02-23T01:36:52.595Z,99.90
2023-02-23T01:39:22.098Z,99.90
2023-02-23T01:41:54.240Z,99.90
2023-02-23T01:45:24.161Z,99.90
2023-02-23T01:47:54.502Z,99.90
2023-02-23T01:50:26.598Z,99.90
2023-02-23T01:52:56.716Z,99.90
2023-02-23T01:55:29.133Z,99.90
2023-02-23T01:58:12.180Z,99.90
2023-02-23T02:00:40.875Z,99.90
2023-02-23T02:03:20.004Z,99.90
2023-02-23T02:05:51.632Z,99.90
2023-02-23T02:08:23.913Z,99.90
2023-02-23T02:10:56.035Z,99.90
2023-02-23T02:13:30.183Z,99.90
2023-02-23T02:16:18.692Z,99.90
2023-02-23T02:19:40.775Z,99.90
2023-02-23T02:22:46.026Z,99.90
2023-02-23T02:25:37.160Z,99.90
2023-02-23T02:29:14.222Z,99.90
2023-02-23T02:32:48.511Z,99.90
2023-02-23T02:35:44.613Z,99.90
2023-02-23T02:38:27.076Z,99.90
2023-02-23T02:41:07.594Z,99.90
2023-02-23T02:43:50.979Z,99.90
2023-02-23T02:46:26.314Z,99.90
2023-02-23T02:49:06.693Z,99.90
2023-02-23T02:51:45.722Z,99.90
2023-02-23T02:54:27.993Z,99.90
2023-02-23T02:57:02.045Z,99.90
2023-02-23T02:59:47.951Z,99.90
2023-02-23T03:02:37.946Z,99.90
2023-02-23T03:05:32.490Z,99.90
2023-02-23T03:08:32.822Z,99.90
2023-02-23T03:11:24.583Z,99.90
2023-02-23T03:14:33.334Z,99.90
2023-02-23T03:17:25.331Z,99.90
2023-02-23T03:20:18.638Z,99.90
2023-02-23T03:23:16.448Z,99.90
2023-02-23T03:26:12.309Z,99.90
2023-02-23T03:29:14.319Z,99.90
2023-02-23T03:32:09.395Z,99.90
2023-02-23T03:35:03.091Z,99.90
2023-02-23T03:37:55.656Z,99.90
2023-02-23T03:40:47.607Z,99.90
2023-02-23T03:43:40.977Z,99.90
2023-02-23T03:46:32.964Z,99.90
2023-02-23T03:49:25.721Z,99.90
2023-02-23T03:52:22.193Z,99.90
2023-02-23T03:55:15.826Z,99.90
2023-02-23T03:58:06.994Z,99.90
2023-02-23T04:01:01.946Z,99.90
2023-02-23T04:03:54.117Z,99.90
2023-02-23T04:06:46.723Z,99.90
2023-02-23T04:09:32.861Z,99.90
2023-02-23T04:12:31.768Z,99.90
2023-02-23T04:15:10.560Z,99.90
2023-02-23T04:17:38.703Z,99.90
2023-02-23T04:20:12.175Z,99.90
2023-02-23T04:22:40.447Z,99.90
2023-02-23T04:25:09.506Z,99.90
2023-02-23T04:27:37.988Z,99.90
2023-02-23T04:30:11.523Z,99.90
2023-02-23T04:32:39.852Z,99.90
2023-02-23T04:35:11.152Z,99.90
2023-02-23T04:37:39.689Z,99.90
2023-02-23T04:40:10.029Z,99.90
2023-02-23T04:42:40.277Z,99.90
2023-02-23T04:45:10.812Z,99.90
2023-02-23T04:47:39.484Z,99.90
2023-02-23T04:50:11.974Z,99.90
2023-02-23T04:52:40.148Z,99.90
2023-02-23T04:55:10.571Z,99.90
2023-02-23T04:57:38.590Z,99.90
2023-02-23T05:00:08.800Z,99.90
2023-02-23T05:02:36.847Z,99.90
2023-02-23T05:05:05.598Z,99.90
2023-02-23T05:07:35.053Z,99.90
2023-02-23T05:10:03.893Z,99.90
2023-02-23T05:12:32.126Z,99.90
2023-02-23T05:15:00.441Z,99.90
2023-02-23T05:17:28.565Z,99.90
2023-02-23T05:19:56.856Z,99.90
2023-02-23T05:22:24.913Z,99.90
2023-02-23T05:24:56.444Z,99.90
2023-02-23T05:27:25.414Z,99.90
2023-02-23T05:29:53.611Z,99.90
2023-02-23T05:32:22.012Z,99.90
2023-02-23T05:34:50.096Z,99.90
2023-02-23T05:37:18.951Z,99.90
2023-02-23T05:39:47.969Z,99.90
2023-02-23T05:42:17.456Z,99.90
2023-02-23T05:44:45.726Z,99.90
2023-02-23T05:47:13.827Z,99.90
2023-02-23T05:49:41.882Z,99.90
2023-02-23T05:52:09.918Z,99.90
2023-02-23T05:54:38.081Z,99.90
2023-02-23T05:57:06.172Z,99.90
2023-02-23T05:59:35.584Z,99.90
2023-02-23T06:02:06.137Z,99.90
2023-02-23T06:04:34.532Z,99.90
2023-02-23T06:07:02.602Z,99.90
2023-02-23T06:09:30.658Z,99.90
2023-02-23T06:12:00.886Z,99.90
2023-02-23T06:14:29.029Z,99.90
2023-02-23T06:16:58.742Z,99.90
2023-02-23T06:19:26.911Z,99.90
2023-02-23T06:21:54.972Z,99.90
2023-02-23T06:24:23.592Z,99.90
2023-02-23T06:26:51.845Z,99.90
2023-02-23T06:29:20.057Z,99.90
2023-02-23T06:31:48.226Z,99.90
2023-02-23T06:34:17.713Z,99.90
2023-02-23T06:36:45.868Z,99.90
2023-02-23T06:39:14.274Z,99.90
2023-02-23T06:41:42.331Z,99.90
2023-02-23T06:44:10.489Z,99.90
2023-02-23T06:46:38.516Z,99.90
2023-02-23T06:49:06.570Z,99.90
2023-02-23T06:51:36.024Z,99.90
2023-02-23T06:54:04.106Z,99.90
2023-02-23T06:56:32.172Z,99.90
2023-02-23T06:59:00.224Z,99.90
2023-02-23T07:01:28.327Z,99.90
2023-02-23T07:03:56.440Z,99.90
2023-02-23T07:06:24.783Z,99.90
2023-02-23T07:08:54.175Z,99.90
2023-02-23T07:11:22.229Z,99.90
2023-02-23T07:13:50.300Z,99.90
2023-02-23T07:16:18.461Z,99.90
2023-02-23T07:18:46.496Z,99.90
2023-02-23T07:21:14.666Z,99.90
2023-02-23T07:23:42.699Z,99.90
2023-02-23T07:26:16.159Z,99.90
2023-02-23T07:28:44.598Z,99.90
2023-02-23T07:31:12.677Z,99.90
2023-02-23T07:33:40.849Z,99.90
2023-02-23T07:36:09.810Z,99.90
2023-02-23T07:38:38.020Z,99.90
2023-02-23T07:41:06.703Z,99.90
2023-02-23T07:43:36.183Z,99.90
2023-02-23T07:46:04.330Z,99.90
2023-02-23T07:48:33.205Z,99.90
2023-02-23T07:51:01.384Z,99.90
2023-02-23T07:53:29.429Z,99.90
2023-02-23T07:55:58.435Z,99.90
2023-02-23T07:58:26.433Z,99.90
2023-02-23T08:00:56.293Z,99.90
2023-02-23T08:03:25.703Z,99.90
2023-02-23T08:05:53.983Z,99.90
2023-02-23T08:08:22.200Z,99.90
2023-02-23T08:10:50.528Z,99.90
2023-02-23T08:13:18.945Z,99.90
2023-02-23T08:15:47.564Z,99.90
2023-02-23T08:18:17.620Z,99.90
2023-02-23T08:20:45.902Z,99.90
2023-02-23T08:23:13.982Z,99.90
2023-02-23T08:25:42.022Z,99.90
2023-02-23T08:28:10.355Z,99.90
2023-02-23T08:30:39.634Z,99.90
2023-02-23T08:33:08.248Z,99.90
2023-02-23T08:35:37.620Z,99.90
2023-02-23T08:38:05.632Z,99.90
2023-02-23T08:40:33.667Z,99.90
2023-02-23T08:43:01.621Z,99.90
2023-02-23T08:45:29.869Z,99.90
2023-02-23T08:47:58.200Z,99.90
2023-02-23T08:50:27.510Z,99.90
2023-02-23T08:52:57.035Z,99.90
2023-02-23T08:55:25.096Z,99.90
2023-02-23T08:57:53.225Z,99.90
2023-02-23T09:00:22.808Z,99.90
2023-02-23T09:02:51.793Z,99.90
2023-02-23T09:05:20.307Z,99.90
2023-02-23T09:07:49.337Z,99.90
2023-02-23T09:10:24.036Z,99.90
2023-02-23T09:12:52.964Z,99.90
2023-02-23T09:15:21.772Z,99.90
2023-02-23T09:17:49.926Z,99.90
2023-02-23T09:20:18.966Z,99.90
2023-02-23T09:22:49.623Z,99.90
2023-02-23T09:25:22.853Z,99.90
2023-02-23T09:27:52.762Z,99.90
2023-02-23T09:30:22.667Z,99.90
2023-02-23T09:32:52.209Z,99.90
2023-02-23T09:35:22.506Z,99.90
2023-02-23T09:37:53.135Z,99.90
2023-02-23T09:40:27.519Z,99.90
2023-02-23T09:43:04.353Z,99.90
2023-02-23T09:45:41.762Z,99.90
2023-02-23T09:48:17.377Z,99.90
2023-02-23T09:50:51.350Z,99.90
2023-02-23T09:53:39.136Z,99.90
2023-02-23T09:56:17.976Z,99.90
2023-02-23T09:58:46.420Z,99.90
2023-02-23T10:01:47.614Z,99.90
2023-02-23T10:04:23.547Z,99.90
2023-02-23T10:07:10.532Z,99.90
2023-02-23T10:10:02.559Z,99.90
2023-02-23T10:12:43.688Z,99.90
2023-02-23T10:15:26.408Z,99.90
2023-02-23T10:18:12.277Z,99.90
2023-02-23T10:20:51.983Z,99.90
2023-02-23T10:23:31.284Z,99.90
2023-02-23T10:26:03.494Z,99.90
2023-02-23T10:28:38.128Z,99.90
2023-02-23T10:31:31.390Z,99.90
2023-02-23T10:34:06.017Z,99.90
2023-02-23T10:36:40.530Z,99.90
2023-02-23T10:39:13.601Z,99.90
2023-02-23T10:41:44.169Z,99.90
2023-02-23T10:44:22.772Z,99.90
2023-02-23T10:46:56.989Z,99.90
2023-02-23T10:49:33.348Z,99.90
2023-02-23T10:52:03.081Z,99.90
2023-02-23T10:54:44.570Z,99.90
2023-02-23T10:57:22.814Z,99.90
2023-02-23T11:00:27.600Z,99.90
2023-02-23T11:02:59.176Z,99.90
2023-02-23T11:05:44.349Z,99.90
2023-02-23T11:08:29.296Z,99.90
2023-02-23T11:11:18.983Z,99.90
2023-02-23T11:13:50.016Z,99.90
2023-02-23T11:16:23.019Z,99.90
2023-02-23T11:18:56.393Z,99.90
2023-02-23T11:21:33.575Z,99.90
2023-02-23T11:24:19.510Z,99.90
2023-02-23T11:26:51.459Z,99.90
2023-02-23T11:29:33.517Z,99.90
2023-02-23T11:32:10.523Z,99.90
2023-02-23T11:34:41.001Z,99.90
2023-02-23T11:37:21.879Z,99.90
2023-02-23T11:39:55.874Z,99.90
2023-02-23T11:42:27.191Z,99.90
2023-02-23T11:45:06.924Z,99.90
2023-02-23T11:47:42.630Z,99.90
2023-02-23T11:50:25.005Z,99.90
2023-02-23T11:53:03.774Z,99.90
2023-02-23T11:55:34.942Z,99.90
2023-02-23T11:58:16.793Z,99.90
2023-02-23T12:00:45.032Z,99.90
2023-02-23T12:03:26.174Z,99.90
2023-02-23T12:05:59.215Z,99.90
2023-02-23T12:08:43.123Z,99.90
2023-02-23T12:11:21.261Z,99.90
2023-02-23T12:13:57.656Z,99.90
2023-02-23T12:16:34.737Z,99.90
2023-02-23T12:19:13.053Z,99.90
2023-02-23T12:21:48.318Z,99.90
2023-02-23T12:24:27.392Z,99.90
2023-02-23T12:27:03.070Z,99.90
2023-02-23T12:32:33.953Z,99.90
2023-02-23T12:35:12.125Z,99.90
2023-02-23T12:37:48.234Z,99.90
2023-02-23T12:40:20.768Z,99.90
2023-02-23T12:43:01.459Z,99.90
2023-02-23T12:45:40.963Z,98.40
2023-02-23T12:48:20.142Z,99.90
2023-02-23T12:50:56.761Z,92.40
2023-02-23T12:53:35.211Z,87.60
2023-02-23T12:56:27.510Z,75.80
2023-02-23T12:59:13.442Z,79.90
2023-02-23T13:01:49.492Z,74.70
2023-02-23T13:04:45.631Z,72.50
2023-02-23T13:07:22.901Z,69.40
2023-02-23T13:10:07.715Z,55.40
2023-02-23T13:12:54.350Z,48.70
2023-02-23T13:15:35.735Z,52.00
2023-02-23T13:18:14.281Z,48.80
2023-02-23T13:20:49.059Z,47.10
2023-02-23T13:23:32.261Z,44.40
2023-02-23T13:26:20.322Z,46.30
2023-02-23T13:29:01.375Z,47.40
2023-02-23T13:31:35.287Z,50.30
2023-02-23T13:34:08.085Z,53.90
2023-02-23T13:36:38.190Z,55.60
2023-02-23T13:39:47.663Z,57.00
2023-02-23T13:42:40.647Z,55.30
2023-02-23T13:45:30.110Z,53.90
2023-02-23T13:48:07.791Z,52.10
2023-02-23T13:50:49.160Z,47.30
2023-02-23T13:53:43.777Z,47.50
2023-02-23T13:56:19.490Z,44.60
2023-02-23T13:58:53.727Z,44.70
2023-02-23T14:01:30.366Z,40.70
2023-02-23T14:04:03.201Z,40.40
2023-02-23T14:06:35.277Z,38.40
2023-02-23T14:09:11.776Z,43.80
2023-02-23T14:11:53.764Z,44.00
2023-02-23T14:14:44.781Z,44.90
2023-02-23T14:17:56.143Z,40.50
2023-02-23T14:20:53.627Z,38.10
2023-02-23T14:23:37.819Z,39.00
2023-02-23T14:26:41.666Z,38.50
2023-02-23T14:29:32.507Z,37.20
2023-02-23T14:32:25.599Z,35.60
2023-02-23T14:34:57.024Z,37.10
2023-02-23T14:37:32.048Z,37.40
2023-02-23T14:40:12.082Z,37.90
2023-02-23T14:42:42.212Z,39.40
2023-02-23T14:45:25.748Z,39.30
2023-02-23T14:47:59.973Z,41.40
2023-02-23T14:50:31.987Z,42.00
2023-02-23T14:53:02.310Z,44.60
2023-02-23T14:55:32.990Z,44.10
2023-02-23T14:58:02.777Z,43.30
2023-02-23T15:00:36.096Z,45.70
2023-02-23T15:03:09.191Z,47.20
2023-02-23T15:05:44.011Z,45.10
2023-02-23T15:08:18.462Z,45.00
2023-02-23T15:10:50.057Z,46.00
2023-02-23T15:13:39.135Z,49.50
2023-02-23T15:16:16.785Z,52.00
2023-02-23T15:19:33.756Z,56.80
2023-02-23T15:22:05.404Z,59.20
2023-02-23T15:24:43.220Z,60.70
2023-02-23T15:27:22.674Z,64.50
2023-02-23T15:29:51.750Z,69.90
2023-02-23T15:32:24.966Z,77.10
2023-02-23T15:34:55.578Z,80.40
2023-02-23T15:37:33.113Z,80.90
2023-02-23T15:40:06.103Z,84.80
2023-02-23T15:42:40.686Z,89.40
2023-02-23T15:45:27.598Z,91.60
2023-02-23T15:48:01.419Z,88.90
2023-02-23T15:50:37.337Z,90.00
2023-02-23T15:53:13.810Z,92.00
2023-02-23T15:55:45.384Z,94.20
2023-02-23T15:58:23.354Z,98.50
2023-02-23T16:00:58.956Z,99.90
2023-02-23T16:03:34.682Z,99.90
2023-02-23T16:06:08.322Z,99.90
2023-02-23T16:08:37.261Z,99.90
2023-02-23T16:11:16.168Z,99.90
2023-02-23T16:13:47.049Z,99.90
2023-02-23T16:16:21.004Z,99.90
2023-02-23T16:19:01.557Z,99.90
2023-02-23T16:21:35.384Z,99.90
2023-02-23T16:24:22.235Z,99.90
2023-02-23T16:26:57.416Z,99.90
2023-02-23T16:29:41.613Z,99.90
2023-02-23T16:32:18.583Z,99.90
2023-02-23T16:34:52.607Z,99.90
2023-02-23T16:37:26.156Z,99.90
2023-02-23T16:39:55.997Z,99.90
2023-02-23T16:42:29.884Z,99.90
2023-02-23T16:44:59.495Z,99.90
2023-02-23T16:47:43.656Z,99.90
2023-02-23T16:50:20.726Z,99.90
2023-02-23T16:52:53.129Z,99.90
2023-02-23T16:55:26.171Z,99.90
2023-02-23T16:57:58.851Z,99.90
2023-02-23T17:00:30.646Z,99.90
2023-02-23T17:03:00.870Z,99.90
2023-02-23T17:05:31.054Z,99.90
2023-02-23T17:07:59.570Z,99.90
2023-02-23T17:10:32.394Z,99.90
2023-02-23T17:13:05.231Z,99.90
2023-02-23T17:15:37.987Z,99.90
2023-02-23T17:18:07.557Z,99.90
2023-02-23T17:20:37.569Z,99.90
2023-02-23T17:23:06.572Z,99.90
2023-02-23T17:25:35.397Z,99.90
2023-02-23T17:28:04.367Z,99.90
2023-02-23T17:30:33.976Z,99.90
2023-02-23T17:33:03.240Z,99.90
2023-02-23T17:35:33.652Z,99.90
2023-02-23T17:38:04.075Z,99.90
2023-02-23T17:40:36.365Z,99.90
2023-02-23T17:43:08.630Z,99.90
2023-02-23T17:45:37.292Z,99.90
2023-02-23T17:48:06.369Z,99.90
2023-02-23T17:50:34.713Z,99.90
2023-02-23T17:53:04.443Z,99.90
2023-02-23T17:55:32.982Z,99.90
2023-02-23T17:58:01.264Z,99.90
2023-02-23T18:00:29.640Z,99.90
2023-02-23T18:02:58.156Z,99.90
2023-02-23T18:05:26.413Z,99.90
2023-02-23T18:07:54.638Z,99.90
2023-02-23T18:10:25.599Z,99.90
2023-02-23T18:12:54.064Z,99.90
2023-02-23T18:15:22.841Z,99.90
2023-02-23T18:17:54.634Z,99.90
2023-02-23T18:20:23.353Z,99.90
2023-02-23T18:22:51.499Z,99.90
2023-02-23T18:25:29.471Z,99.90
2023-02-23T18:27:58.765Z,99.90
2023-02-23T18:30:28.336Z,99.90
2023-02-23T18:33:00.869Z,99.90
2023-02-23T18:35:29.565Z,99.90
2023-02-23T18:37:57.935Z,99.90
2023-02-23T18:40:28.090Z,99.90
2023-02-23T18:42:58.924Z,99.90
2023-02-23T18:45:27.987Z,99.90
2023-02-23T18:47:56.460Z,99.90
2023-02-23T18:50:26.440Z,99.90
2023-02-23T18:52:58.203Z,99.90
2023-02-23T18:55:28.535Z,99.90
2023-02-23T18:57:56.743Z,99.90
2023-02-23T19:00:25.507Z,99.90
2023-02-23T19:02:53.855Z,99.90
2023-02-23T19:05:22.786Z,99.90
2023-02-23T19:07:51.076Z,99.90
2023-02-23T19:10:19.564Z,99.90
2023-02-23T19:12:49.348Z,99.90
2023-02-23T19:15:17.665Z,99.90
2023-02-23T19:17:47.392Z,99.90
2023-02-23T19:20:15.916Z,99.90
2023-02-23T19:22:45.511Z,99.90
2023-02-23T19:25:15.467Z,99.90
2023-02-23T19:27:44.342Z,99.90
2023-02-23T19:30:14.940Z,99.90
2023-02-23T19:32:44.183Z,99.90
2023-02-23T19:35:15.964Z,99.90
2023-02-23T19:37:49.922Z,99.90
2023-02-23T19:40:22.773Z,99.90
2023-02-23T19:42:53.122Z,99.90
2023-02-23T19:45:24.812Z,99.90
2023-02-23T19:47:54.076Z,99.90
2023-02-23T19:50:23.203Z,99.90
2023-02-23T19:52:51.464Z,99.90
2023-02-23T19:55:20.283Z,99.90
2023-02-23T19:57:48.616Z,99.90
2023-02-23T20:00:18.010Z,99.90
2023-02-23T20:02:54.817Z,99.90
2023-02-23T20:05:25.752Z,99.90
2023-02-23T20:07:54.874Z,99.90
2023-02-23T20:10:25.819Z,99.90
2023-02-23T20:12:54.222Z,99.90
2023-02-23T20:15:22.800Z,99.90
2023-02-23T20:17:52.416Z,99.90
2023-02-23T20:20:25.418Z,99.90
2023-02-23T20:22:55.384Z,99.90
2023-02-23T20:25:24.728Z,99.90
2023-02-23T20:27:53.128Z,99.90
2023-02-23T20:30:22.204Z,99.90
2023-02-23T20:32:52.008Z,99.90
2023-02-23T20:35:21.299Z,99.90
2023-02-23T20:37:49.505Z,99.90
2023-02-23T20:40:18.862Z,99.90
2023-02-23T20:42:49.611Z,99.90
2023-02-23T20:45:22.129Z,99.90
2023-02-23T20:47:54.920Z,99.90
2023-02-23T20:50:28.522Z,99.90
2023-02-23T20:52:56.848Z,99.90
2023-02-23T20:55:27.295Z,99.90
2023-02-23T20:57:56.665Z,99.90
2023-02-23T21:00:28.281Z,99.90
2023-02-23T21:02:58.106Z,99.90
2023-02-23T21:05:29.383Z,99.90
2023-02-23T21:08:02.177Z,99.90
2023-02-23T21:10:32.618Z,99.90
2023-02-23T21:13:01.062Z,99.90
2023-02-23T21:15:30.723Z,99.90
2023-02-23T21:18:00.990Z,99.90
2023-02-23T21:20:29.588Z,99.90
2023-02-23T21:22:57.936Z,99.90
2023-02-23T21:25:29.180Z,99.90
2023-02-23T21:28:01.906Z,99.90
2023-02-23T21:30:31.714Z,99.90
2023-02-23T21:33:03.928Z,99.90
2023-02-23T21:35:32.358Z,99.90
2023-02-23T21:38:00.748Z,99.90
2023-02-23T21:40:29.207Z,99.90
2023-02-23T21:42:57.536Z,99.90
2023-02-23T21:45:25.806Z,99.90
2023-02-23T21:47:54.034Z,99.90
2023-02-23T21:50:26.504Z,99.90
2023-02-23T21:52:58.286Z,99.90
2023-02-23T21:55:26.528Z,99.90
2023-02-23T21:57:55.016Z,99.90
2023-02-23T22:00:24.134Z,99.90
2023-02-23T22:02:53.028Z,99.90
2023-02-23T22:05:23.334Z,99.90
2023-02-23T22:07:54.177Z,99.90
2023-02-23T22:10:25.044Z,99.90
2023-02-23T22:12:56.203Z,99.90
2023-02-23T22:15:27.753Z,99.90
2023-02-23T22:17:56.439Z,99.90
2023-02-23T22:20:26.700Z,99.90
2023-02-23T22:22:55.032Z,99.90
2023-02-23T22:25:23.393Z,99.90
2023-02-23T22:27:51.640Z,99.90
2023-02-23T22:30:22.413Z,99.90
2023-02-23T22:32:51.379Z,99.90
2023-02-23T22:35:19.784Z,99.90
2023-02-23T22:37:49.612Z,99.90
2023-02-23T22:40:18.512Z,99.90
2023-02-23T22:42:49.212Z,99.90
2023-02-23T22:45:18.995Z,99.90
2023-02-23T22:47:47.247Z,99.90
2023-02-23T22:50:19.406Z,99.90
2023-02-23T22:52:49.020Z,99.90
2023-02-23T22:55:19.263Z,99.90
2023-02-23T22:57:47.841Z,99.90
2023-02-23T23:00:19.964Z,99.90
2023-02-23T23:02:48.369Z,99.90
2023-02-23T23:05:16.822Z,99.90
2023-02-23T23:07:46.867Z,99.90
2023-02-23T23:10:19.183Z,99.90
2023-02-23T23:12:48.901Z,99.90
2023-02-23T23:15:19.318Z,99.90
2023-02-23T23:17:49.381Z,99.90
2023-02-23T23:20:25.525Z,99.90
2023-02-23T23:22:53.878Z,99.90
2023-02-23T23:25:23.796Z,99.90
2023-02-23T23:27:55.700Z,99.90
2023-02-23T23:30:26.100Z,99.90
2023-02-23T23:32:55.818Z,99.90
2023-02-23T23:35:26.119Z,99.90
2023-02-23T23:37:54.359Z,99.90
2023-02-23T23:40:25.307Z,99.90
2023-02-23T23:42:55.435Z,99.90
2023-02-23T23:45:25.802Z,99.90
2023-02-23T23:47:54.056Z,99.90
2023-02-23T23:50:26.657Z,99.90
2023-02-23T23:52:55.551Z,99.90
2023-02-23T23:55:25.052Z,99.90
2023-02-23T23:57:53.325Z,99.90
